Anderson, Nebraska
Current Conditions -  °F | °C
As of 8:35 AM on Sunday 23 Nov 2014 (Local Time) from KHDE Reporting Station
Overcast Overcast  
Wind Chill:   Ceiling: 4900
Heat Index:   Visibility: 10mi
Dew Point:   Wind: 24mph
Humidity: 65%   Direction: 350°N
Pressure: 29.61"   Gusts: 36mph
Location:  40.5251°N, 99.2414°W
Report Text: KHDE 231435Z AUTO 35021G31KT 10SM SCT044 OVC049 06/00 A2961 RMK AO2 T00640002
Loading
Personal Weather Stations






























Interactive Weather Map New forecast layout! Learn more

10-Day Weather Forecast

Advertisements
Track Severe Weather on mobile